Time;durP1;ratioP1;P1;durP2;ratioP2;P2;SDS_P1;SDS_P2;PMS_P1;PMS_P2;Temp;Humidity;BMP_temperature;BMP_pressure;BME280_temperature;BME280_humidity;BME280_pressure;Samples;Min_cycle;Max_cycle;Signal;HPM_P1;HPM_P2
2021/09/02 00:02:04;;;;;;;10.25;6.43;;;;;;;12.58;77.51;97150.78;4935356;29;20059;-83
2021/09/02 00:04:30;;;;;;;10.52;6.97;;;;;;;12.55;77.25;97143.19;4950850;29;20524;-78
2021/09/02 00:06:57;;;;;;;8.95;6.53;;;;;;;12.55;77.75;97143.19;4954792;29;20051;-80
2021/09/02 00:09:25;;;;;;;11.38;6.07;;;;;;;12.54;77.15;97144.31;4954760;29;20043;-84
2021/09/02 00:11:53;;;;;;;10.25;5.88;;;;;;;12.52;77.35;97143.81;4955218;29;20430;-81
2021/09/02 00:14:19;;;;;;;10.27;6.90;;;;;;;12.46;77.70;97145.88;4954459;29;20051;-84
2021/09/02 00:16:46;;;;;;;8.57;6.20;;;;;;;12.45;78.18;97138.00;4954831;29;20051;-81
2021/09/02 00:19:12;;;;;;;13.30;6.75;;;;;;;12.44;77.97;97139.13;4954650;29;20058;-80
2021/09/02 00:21:40;;;;;;;9.73;6.70;;;;;;;12.40;77.79;97138.13;4954713;29;20055;-82
2021/09/02 00:24:07;;;;;;;11.52;6.90;;;;;;;12.34;78.21;97134.69;4954442;29;20047;-88
2021/09/02 00:26:34;;;;;;;14.95;6.15;;;;;;;12.31;78.57;97134.50;4954991;29;20527;-87
2021/09/02 00:29:02;;;;;;;9.30;6.75;;;;;;;12.27;79.33;97131.59;4954830;29;20075;-84
2021/09/02 00:31:28;;;;;;;9.15;5.90;;;;;;;12.25;79.63;97126.44;4954535;29;20043;-86
2021/09/02 00:33:55;;;;;;;10.93;6.78;;;;;;;12.21;79.75;97125.44;4954727;29;20058;-87
2021/09/02 00:36:21;;;;;;;10.05;6.65;;;;;;;12.20;79.64;97129.28;4953794;29;20744;-87
2021/09/02 00:38:48;;;;;;;8.55;5.80;;;;;;;12.18;79.47;97123.34;4954357;28;20051;-85
2021/09/02 00:41:14;;;;;;;10.02;6.60;;;;;;;12.17;79.34;97119.00;4954268;29;20047;-87
2021/09/02 00:43:42;;;;;;;8.80;6.28;;;;;;;12.14;79.74;97116.06;4954720;29;20051;-85
2021/09/02 00:46:10;;;;;;;9.55;6.20;;;;;;;12.12;79.48;97126.50;4954074;29;20055;-87
2021/09/02 00:48:37;;;;;;;9.75;6.32;;;;;;;12.10;79.58;97124.06;4954621;29;20479;-87
2021/09/02 00:51:04;;;;;;;10.70;6.45;;;;;;;12.10;79.46;97121.31;4953892;29;20051;-87
2021/09/02 00:53:31;;;;;;;9.65;6.00;;;;;;;12.05;78.53;97121.44;4954583;29;20048;-84
2021/09/02 00:56:00;;;;;;;7.75;5.85;;;;;;;11.98;78.58;97121.88;4954702;29;20063;-87
2021/09/02 00:58:27;;;;;;;9.35;5.55;;;;;;;11.96;78.73;97118.66;4953960;29;20573;-86
2021/09/02 01:00:53;;;;;;;7.60;5.28;;;;;;;11.90;78.58;97119.06;4954395;29;20069;-87
2021/09/02 01:03:22;;;;;;;7.82;5.50;;;;;;;11.85;78.84;97116.44;4953402;29;20047;-87
2021/09/02 01:05:49;;;;;;;7.57;5.60;;;;;;;11.82;79.04;97111.63;4954116;29;20477;-86
2021/09/02 01:08:16;;;;;;;7.85;5.65;;;;;;;11.81;79.19;97107.25;4953828;29;20047;-87
2021/09/02 01:10:43;;;;;;;7.68;5.57;;;;;;;11.80;79.38;97111.06;4953824;29;20418;-86
2021/09/02 01:13:09;;;;;;;8.45;5.93;;;;;;;11.80;79.67;97113.81;4953411;29;20066;-86
2021/09/02 01:15:36;;;;;;;9.63;5.90;;;;;;;11.83;79.63;97118.69;4953950;29;20047;-87
2021/09/02 01:18:02;;;;;;;14.95;6.22;;;;;;;11.84;79.73;97115.66;4953322;29;20051;-86
2021/09/02 01:20:32;;;;;;;9.77;6.20;;;;;;;11.84;79.88;97121.09;4954033;29;20059;-86
2021/09/02 01:23:01;;;;;;;8.95;5.82;;;;;;;11.90;79.17;97116.34;4953804;29;20051;-86
2021/09/02 01:25:31;;;;;;;8.77;5.13;;;;;;;11.94;78.65;97109.97;4953667;29;20066;-86
2021/09/02 01:28:00;;;;;;;11.23;5.10;;;;;;;11.96;78.45;97110.47;4953774;29;20054;-87
2021/09/02 01:30:26;;;;;;;7.40;5.20;;;;;;;11.95;78.54;97110.75;4936055;29;20043;-86
2021/09/02 01:32:54;;;;;;;9.90;5.25;;;;;;;11.94;78.40;97111.88;4953285;29;20047;-86
2021/09/02 01:35:22;;;;;;;7.75;5.28;;;;;;;11.90;78.87;97108.16;4950000;29;20054;-86
2021/09/02 01:37:52;;;;;;;7.88;5.15;;;;;;;11.86;78.86;97101.72;4953167;28;20058;-86
2021/09/02 01:40:21;;;;;;;9.68;5.90;;;;;;;11.79;78.79;97109.47;4952871;29;20051;-87
2021/09/02 01:42:49;;;;;;;8.10;5.47;;;;;;;11.73;78.60;97108.78;4953382;29;20051;-87
2021/09/02 01:45:16;;;;;;;7.13;5.60;;;;;;;11.73;78.95;97104.13;4953003;29;20411;-86
2021/09/02 01:47:43;;;;;;;8.13;5.57;;;;;;;11.70;78.64;97109.41;4953231;29;20058;-86
2021/09/02 01:50:12;;;;;;;8.23;5.65;;;;;;;11.67;78.63;97110.81;4952315;28;20043;-86
2021/09/02 01:52:40;;;;;;;7.45;5.55;;;;;;;11.62;78.96;97113.66;4953099;29;20055;-85
2021/09/02 01:55:08;;;;;;;9.98;5.38;;;;;;;11.63;79.16;97107.06;4952713;29;20454;-85
2021/09/02 01:57:35;;;;;;;7.47;5.20;;;;;;;11.69;78.14;97102.31;4953198;29;20519;-86
2021/09/02 02:00:04;;;;;;;7.38;4.90;;;;;;;11.70;77.57;97109.41;4952800;29;20419;-88
2021/09/02 02:02:30;;;;;;;7.38;4.85;;;;;;;11.60;78.09;97110.44;4953076;29;20051;-86
2021/09/02 02:04:57;;;;;;;8.20;5.10;;;;;;;11.55;78.65;97099.63;4951580;29;20055;-87
2021/09/02 02:07:23;;;;;;;6.22;4.40;;;;;;;11.51;78.30;97098.63;4952503;29;20043;-85
2021/09/02 02:09:50;;;;;;;8.88;5.60;;;;;;;11.42;78.19;97092.25;4953030;29;20047;-88
2021/09/02 02:12:16;;;;;;;10.75;5.80;;;;;;;11.37;78.26;97090.44;4952530;29;20062;-86
2021/09/02 02:14:43;;;;;;;8.02;5.45;;;;;;;11.36;78.51;97093.50;4953015;29;20051;-87
2021/09/02 02:17:11;;;;;;;8.68;5.78;;;;;;;11.32;78.15;97097.94;4952393;29;20051;-85
2021/09/02 02:19:37;;;;;;;8.98;5.85;;;;;;;11.27;78.50;97100.75;4952938;29;20062;-87
2021/09/02 02:22:05;;;;;;;12.18;5.47;;;;;;;11.23;78.51;97095.13;4952408;29;20054;-87
2021/09/02 02:24:32;;;;;;;9.38;5.75;;;;;;;11.24;79.10;97092.09;4952783;29;20047;-85
2021/09/02 02:26:58;;;;;;;8.30;5.50;;;;;;;11.26;79.32;97088.25;4952722;29;20062;-87
2021/09/02 02:29:25;;;;;;;9.07;5.88;;;;;;;11.24;79.62;97081.19;4952162;29;20054;-87
2021/09/02 02:31:51;;;;;;;10.52;6.22;;;;;;;11.27;80.22;97084.41;4952743;29;20438;-86
2021/09/02 02:34:19;;;;;;;13.18;6.30;;;;;;;11.26;80.36;97082.78;4950648;29;20435;-86
2021/09/02 02:36:46;;;;;;;9.98;6.10;;;;;;;11.28;80.11;97088.75;4952548;29;20048;-86
2021/09/02 02:39:12;;;;;;;9.15;5.80;;;;;;;11.25;79.96;97082.00;4952122;28;20048;-86
2021/09/02 02:41:39;;;;;;;7.53;5.60;;;;;;;11.21;79.94;97087.22;4952488;29;20055;-86
2021/09/02 02:44:05;;;;;;;9.75;6.15;;;;;;;11.23;79.85;97084.22;4952025;29;20047;-86
2021/09/02 02:46:32;;;;;;;8.93;5.50;;;;;;;11.22;79.23;97083.41;4952546;28;20077;-87
2021/09/02 02:48:59;;;;;;;8.88;5.63;;;;;;;11.20;79.47;97085.63;4952446;29;20062;-87
2021/09/02 02:51:27;;;;;;;9.63;5.90;;;;;;;11.18;79.70;97087.84;4951981;29;20063;-86
2021/09/02 02:53:53;;;;;;;7.43;5.38;;;;;;;11.15;79.94;97085.72;4952551;29;20051;-86
2021/09/02 02:56:20;;;;;;;11.57;6.55;;;;;;;11.18;80.25;97087.06;4951860;29;20048;-85
2021/09/02 02:58:48;;;;;;;8.43;5.75;;;;;;;11.21;79.72;97087.22;4952342;28;20059;-87
2021/09/02 03:01:14;;;;;;;8.02;5.45;;;;;;;11.22;79.05;97083.41;4951921;28;20058;-87
2021/09/02 03:03:41;;;;;;;11.88;5.55;;;;;;;11.23;78.68;97078.78;4954840;29;20051;-86
2021/09/02 03:06:08;;;;;;;9.50;5.88;;;;;;;11.18;78.50;97082.41;4954740;29;20058;-87
2021/09/02 03:08:36;;;;;;;9.18;5.25;;;;;;;11.19;77.76;97086.75;4956290;28;20051;-87
2021/09/02 03:11:03;;;;;;;8.35;4.85;;;;;;;11.16;78.14;97076.44;4955680;29;20054;-86
2021/09/02 03:13:29;;;;;;;10.00;5.55;;;;;;;11.18;78.66;97073.41;4939276;29;20059;-87
2021/09/02 03:15:56;;;;;;;12.40;6.25;;;;;;;11.12;78.43;97078.19;4956146;29;20088;-88
2021/09/02 03:18:22;;;;;;;9.70;5.65;;;;;;;11.04;78.42;97081.59;4955725;29;20376;-87
2021/09/02 03:20:49;;;;;;;9.68;6.13;;;;;;;11.06;78.40;97079.34;4956128;29;20059;-87
2021/09/02 03:23:15;;;;;;;9.95;6.15;;;;;;;11.03;79.01;97079.19;4955430;29;20140;-87
2021/09/02 03:25:43;;;;;;;9.65;5.70;;;;;;;10.98;79.27;97083.63;4955644;29;20058;-87
2021/09/02 03:28:10;;;;;;;9.80;6.05;;;;;;;10.97;79.44;97076.56;4955421;29;20054;-87
2021/09/02 03:30:36;;;;;;;8.65;5.65;;;;;;;11.01;78.43;97082.19;4938611;29;20055;-87
2021/09/02 03:33:03;;;;;;;9.35;6.03;;;;;;;10.97;78.84;97075.75;4955290;29;20066;-87
2021/09/02 03:35:29;;;;;;;11.68;6.07;;;;;;;10.91;79.28;97082.38;4954258;29;20411;-87
2021/09/02 03:37:56;;;;;;;8.27;6.40;;;;;;;10.87;79.19;97075.94;4955519;28;20051;-83
2021/09/02 03:40:22;;;;;;;10.27;5.53;;;;;;;10.83;79.23;97085.81;4955136;29;20050;-84
2021/09/02 03:42:50;;;;;;;9.90;5.72;;;;;;;10.82;79.53;97084.22;4955544;29;20515;-86
2021/09/02 03:45:17;;;;;;;9.88;6.00;;;;;;;10.82;79.61;97089.66;4955211;29;20043;-87
2021/09/02 03:47:47;;;;;;;11.45;6.18;;;;;;;10.77;80.05;97090.56;4955558;28;20062;-87
2021/09/02 03:50:13;;;;;;;9.18;6.10;;;;;;;10.81;79.31;97090.78;4955045;29;20507;-87
2021/09/02 03:52:40;;;;;;;8.05;5.43;;;;;;;10.75;79.15;97094.69;4955595;29;20059;-87
2021/09/02 03:55:07;;;;;;;8.85;6.05;;;;;;;10.69;79.13;97092.06;4954815;29;20058;-87
2021/09/02 03:57:33;;;;;;;10.27;6.78;;;;;;;10.66;79.46;97087.22;4955317;29;20048;-87
2021/09/02 04:00:02;;;;;;;11.13;6.88;;;;;;;10.69;79.90;97086.59;4955385;29;20073;-87
2021/09/02 04:02:29;;;;;;;10.07;6.93;;;;;;;10.68;80.45;97087.72;4955000;29;20051;-87
2021/09/02 04:04:55;;;;;;;10.05;6.32;;;;;;;10.69;80.58;97091.25;4953886;29;20479;-88
2021/09/02 04:07:21;;;;;;;10.73;6.47;;;;;;;10.68;80.27;97085.00;4954610;29;20530;-86
2021/09/02 04:09:48;;;;;;;11.63;6.80;;;;;;;10.74;80.23;97093.88;4954927;29;20048;-89
2021/09/02 04:12:15;;;;;;;10.10;6.22;;;;;;;10.79;79.72;97090.25;4954683;28;20070;-88
2021/09/02 04:14:41;;;;;;;10.18;6.35;;;;;;;10.82;79.50;97100.56;4954742;28;20054;-87
2021/09/02 04:17:09;;;;;;;10.52;6.53;;;;;;;10.84;78.80;97096.41;4954554;29;20050;-86
2021/09/02 04:19:36;;;;;;;11.00;6.85;;;;;;;10.85;78.65;97094.50;4955133;29;20522;-84
2021/09/02 04:22:03;;;;;;;10.05;6.25;;;;;;;10.85;78.53;97099.94;4954332;29;20063;-85
2021/09/02 04:24:29;;;;;;;9.88;6.82;;;;;;;10.85;78.09;97099.94;4954878;29;20062;-87
2021/09/02 04:26:57;;;;;;;9.57;6.25;;;;;;;10.82;78.09;97100.56;4954757;28;20047;-88
2021/09/02 04:29:25;;;;;;;9.85;6.30;;;;;;;10.81;78.29;97105.22;4954639;29;20438;-87
2021/09/02 04:31:51;;;;;;;10.95;6.15;;;;;;;10.76;78.54;97102.56;4954609;28;20078;-86
2021/09/02 04:34:19;;;;;;;8.98;6.10;;;;;;;10.75;78.24;97100.94;4952899;29;20047;-86
2021/09/02 04:36:46;;;;;;;10.32;6.55;;;;;;;10.69;78.62;97107.59;4954504;28;20047;-86
2021/09/02 04:39:12;;;;;;;9.88;6.38;;;;;;;10.63;79.70;97106.88;4953851;28;20051;-88
2021/09/02 04:41:39;;;;;;;9.98;6.30;;;;;;;10.65;79.50;97107.41;4954519;28;20055;-87
2021/09/02 04:44:06;;;;;;;9.85;6.50;;;;;;;10.68;78.83;97109.50;4954105;29;20047;-86
2021/09/02 04:46:32;;;;;;;11.30;6.80;;;;;;;10.68;78.47;97117.69;4954522;29;20047;-87
2021/09/02 04:48:59;;;;;;;11.93;6.57;;;;;;;10.67;79.18;97115.25;4954573;28;20046;-88
2021/09/02 04:51:27;;;;;;;10.30;6.50;;;;;;;10.66;79.61;97116.38;4953962;29;20055;-87
2021/09/02 04:53:54;;;;;;;11.77;7.22;;;;;;;10.67;80.36;97113.34;4954419;29;20128;-85
2021/09/02 04:56:20;;;;;;;11.60;7.50;;;;;;;10.71;80.34;97121.72;4954044;29;20063;-82
2021/09/02 04:58:47;;;;;;;12.80;7.20;;;;;;;10.75;80.59;97116.47;4954387;29;20061;-79
2021/09/02 05:01:14;;;;;;;10.27;7.05;;;;;;;10.76;80.02;97115.41;4952141;29;20058;-84
2021/09/02 05:03:40;;;;;;;13.02;8.15;;;;;;;10.75;80.40;97122.72;4951096;29;20059;-82
2021/09/02 05:06:07;;;;;;;12.93;7.45;;;;;;;10.74;81.28;97126.56;4948991;29;20051;-82
2021/09/02 05:08:35;;;;;;;12.45;6.88;;;;;;;10.73;81.18;97121.44;4951072;29;20062;-84
2021/09/02 05:11:01;;;;;;;11.10;6.95;;;;;;;10.74;81.67;97120.31;4950325;29;20059;-83
2021/09/02 05:13:28;;;;;;;13.35;7.90;;;;;;;10.77;81.75;97123.25;4950762;29;20054;-84
2021/09/02 05:15:54;;;;;;;10.75;7.45;;;;;;;10.87;81.63;97130.44;4953663;29;20392;-82
2021/09/02 05:18:21;;;;;;;11.05;6.88;;;;;;;10.93;80.36;97123.78;4953522;29;24141;-84
2021/09/02 05:20:48;;;;;;;11.63;6.82;;;;;;;10.96;80.39;97120.44;4954076;29;20047;-80
2021/09/02 05:23:14;;;;;;;10.43;6.82;;;;;;;11.00;80.53;97126.09;4953412;29;20047;-80
2021/09/02 05:25:42;;;;;;;11.00;6.97;;;;;;;11.04;80.97;97121.66;4953694;28;20058;-88
2021/09/02 05:28:08;;;;;;;11.32;7.68;;;;;;;11.07;81.05;97119.16;4953595;29;20044;-88
2021/09/02 05:30:35;;;;;;;14.00;8.82;;;;;;;11.10;81.59;97123.19;4954865;29;20055;-88
2021/09/02 05:33:02;;;;;;;11.00;8.20;;;;;;;11.15;82.41;97118.44;4953497;29;20051;-88
2021/09/02 05:35:29;;;;;;;13.52;8.10;;;;;;;11.18;82.71;97115.13;4952254;29;20047;-88
2021/09/02 05:37:55;;;;;;;14.80;9.02;;;;;;;11.21;82.63;97119.94;4954020;29;20051;-88
2021/09/02 05:40:21;;;;;;;14.23;8.43;;;;;;;11.31;82.46;97123.59;4953583;29;20055;-87
2021/09/02 05:42:49;;;;;;;13.30;8.60;;;;;;;11.34;82.47;97123.00;4953634;29;20043;-86
2021/09/02 05:45:16;;;;;;;14.82;9.75;;;;;;;11.40;82.92;97116.31;4953160;29;20051;-87
2021/09/02 05:47:42;;;;;;;14.25;9.57;;;;;;;11.46;82.98;97121.34;4953218;29;20070;-88
2021/09/02 05:50:10;;;;;;;13.80;9.80;;;;;;;11.48;82.63;97119.16;4953043;29;20054;-87
2021/09/02 05:52:36;;;;;;;13.10;9.30;;;;;;;11.54;82.74;97122.56;4953695;29;20071;-85
2021/09/02 05:55:04;;;;;;;17.15;10.13;;;;;;;11.57;82.26;97121.13;4953013;29;20071;-87
2021/09/02 05:57:31;;;;;;;16.15;9.65;;;;;;;11.63;82.55;97126.16;4952913;29;20052;-87
2021/09/02 05:59:58;;;;;;;15.30;10.02;;;;;;;11.71;82.33;97117.28;4953307;29;20051;-87
2021/09/02 06:02:25;;;;;;;15.98;10.32;;;;;;;11.77;82.43;97121.50;4952786;29;20062;-87
2021/09/02 06:04:52;;;;;;;15.02;9.80;;;;;;;11.82;82.36;97117.88;4952955;29;20047;-88
2021/09/02 06:07:18;;;;;;;15.93;10.63;;;;;;;11.89;82.15;97117.47;4952861;29;20120;-87
2021/09/02 06:09:45;;;;;;;14.93;10.35;;;;;;;11.97;82.18;97111.28;4953109;29;20059;-87
2021/09/02 06:12:11;;;;;;;13.75;10.30;;;;;;;12.00;82.14;97108.72;4952792;29;20533;-88
2021/09/02 06:14:37;;;;;;;16.50;10.45;;;;;;;12.03;82.15;97115.50;4954747;29;20047;-86
2021/09/02 06:17:05;;;;;;;18.30;10.85;;;;;;;12.09;81.86;97118.91;4953124;29;20063;-87
2021/09/02 06:19:32;;;;;;;15.35;9.93;;;;;;;12.17;81.72;97119.00;4953375;29;20055;-87
2021/09/02 06:21:58;;;;;;;14.77;10.13;;;;;;;12.20;81.29;97118.38;4953286;29;20059;-87
2021/09/02 06:24:25;;;;;;;13.95;9.80;;;;;;;12.23;81.46;97120.47;4952611;29;20046;-87
2021/09/02 06:26:51;;;;;;;15.90;10.80;;;;;;;12.33;81.25;97126.81;4952967;29;20043;-87
2021/09/02 06:29:18;;;;;;;16.13;10.57;;;;;;;12.36;81.29;97126.19;4952204;29;20055;-86
2021/09/02 06:31:45;;;;;;;16.50;10.40;;;;;;;12.42;81.70;97131.22;4952793;29;20063;-87
2021/09/02 06:34:12;;;;;;;17.38;10.23;;;;;;;12.50;81.86;97126.94;4952265;29;20051;-87
2021/09/02 06:36:39;;;;;;;15.25;9.75;;;;;;;12.60;81.74;97123.94;4952683;29;20047;-84
2021/09/02 06:39:06;;;;;;;15.05;9.63;;;;;;;12.69;81.10;97119.34;4952256;29;20487;-87
2021/09/02 06:41:32;;;;;;;14.45;10.50;;;;;;;12.80;81.69;97128.91;4952751;29;20521;-87
2021/09/02 06:43:59;;;;;;;15.07;9.88;;;;;;;12.93;81.80;97131.84;4935648;29;20053;-87
2021/09/02 06:46:25;;;;;;;17.77;10.90;;;;;;;13.03;80.79;97128.84;4952080;29;20047;-85
2021/09/02 06:48:53;;;;;;;15.82;10.35;;;;;;;13.14;80.97;97130.16;4952686;29;20051;-87
2021/09/02 06:51:21;;;;;;;15.90;10.15;;;;;;;13.31;81.87;97130.28;4952091;29;20204;-86
2021/09/02 06:53:48;;;;;;;14.00;9.02;;;;;;;13.43;81.11;97131.59;4952528;29;20522;-87
2021/09/02 06:56:14;;;;;;;13.55;8.93;;;;;;;13.51;80.25;97128.88;4952020;29;20055;-87
2021/09/02 06:58:41;;;;;;;15.82;8.77;;;;;;;13.63;79.43;97131.03;4952415;29;20050;-86
2021/09/02 07:01:07;;;;;;;13.23;8.98;;;;;;;13.76;79.26;97132.81;4951970;29;20047;-87
2021/09/02 07:03:34;;;;;;;12.05;8.30;;;;;;;13.91;79.04;97134.28;4944298;29;20521;-85
2021/09/02 07:06:00;;;;;;;13.40;8.52;;;;;;;13.98;78.30;97125.59;4952343;29;20066;-86
2021/09/02 07:08:28;;;;;;;10.80;7.80;;;;;;;14.08;77.18;97125.28;4952123;29;20495;-87
2021/09/02 07:10:55;;;;;;;13.55;8.40;;;;;;;14.20;77.19;97122.72;4952355;29;20529;-87
2021/09/02 07:13:21;;;;;;;9.77;7.10;;;;;;;14.30;77.14;97127.88;4951890;29;20066;-87
2021/09/02 07:15:48;;;;;;;12.32;8.00;;;;;;;14.47;76.92;97126.25;4952226;29;20047;-87
2021/09/02 07:18:14;;;;;;;10.35;7.40;;;;;;;14.59;76.03;97129.16;4951570;29;20050;-85
2021/09/02 07:20:41;;;;;;;11.35;7.70;;;;;;;14.75;75.21;97127.50;4952314;29;20066;-85
2021/09/02 07:23:07;;;;;;;10.95;6.93;;;;;;;14.94;75.79;97129.06;4951724;29;20415;-87
2021/09/02 07:25:35;;;;;;;9.90;7.70;;;;;;;15.20;76.13;97138.03;4952262;29;20051;-87
2021/09/02 07:28:02;;;;;;;10.20;6.78;;;;;;;15.83;72.32;97141.78;4951826;29;20043;-87
2021/09/02 07:30:28;;;;;;;10.50;6.60;;;;;;;17.22;68.22;97146.03;4952168;29;20047;-87
2021/09/02 07:32:55;;;;;;;11.85;6.40;;;;;;;18.47;63.84;97148.03;4952090;29;20047;-86
2021/09/02 07:35:22;;;;;;;7.50;5.50;;;;;;;19.63;58.23;97152.72;4951659;29;20059;-86
2021/09/02 07:37:48;;;;;;;8.77;5.72;;;;;;;20.42;55.64;97156.16;4951848;29;20503;-86
2021/09/02 07:40:15;;;;;;;6.93;5.32;;;;;;;21.03;51.63;97158.19;4951694;29;20047;-86
2021/09/02 07:42:43;;;;;;;7.97;5.22;;;;;;;21.62;50.30;97156.91;4951998;29;20062;-85
2021/09/02 07:45:10;;;;;;;8.40;5.30;;;;;;;22.14;48.33;97166.47;4951529;29;20051;-86
2021/09/02 07:47:37;;;;;;;8.52;5.70;;;;;;;22.51;47.58;97171.34;4952134;28;20055;-84
2021/09/02 07:50:05;;;;;;;6.38;4.90;;;;;;;22.83;47.53;97168.19;4954518;29;20051;-86
2021/09/02 07:52:32;;;;;;;8.80;5.43;;;;;;;23.15;46.34;97174.91;4955670;29;20047;-86
2021/09/02 07:54:58;;;;;;;6.88;5.63;;;;;;;23.53;44.66;97172.91;4955515;29;20047;-84
2021/09/02 07:57:25;;;;;;;9.48;5.57;;;;;;;23.98;45.66;97170.94;4954619;29;20051;-86
2021/09/02 07:59:53;;;;;;;7.15;5.00;;;;;;;24.33;41.91;97169.59;4955585;29;20054;-85
2021/09/02 08:02:19;;;;;;;9.50;5.38;;;;;;;24.53;41.14;97179.25;4954939;29;20441;-84
2021/09/02 08:04:46;;;;;;;7.05;5.43;;;;;;;24.47;42.56;97173.28;4955320;29;20047;-85
2021/09/02 08:07:12;;;;;;;7.43;5.28;;;;;;;24.59;41.96;97172.16;4954934;29;20051;-85
2021/09/02 08:09:39;;;;;;;8.63;5.38;;;;;;;24.69;40.21;97171.41;4955277;29;20055;-86
2021/09/02 08:12:06;;;;;;;6.95;5.07;;;;;;;24.98;41.67;97177.88;4954894;29;20062;-84
2021/09/02 08:14:32;;;;;;;7.15;4.95;;;;;;;25.21;41.17;97180.41;4954979;29;20054;-81
2021/09/02 08:17:00;;;;;;;8.95;5.88;;;;;;;25.36;39.84;97180.41;4955161;29;20176;-82
2021/09/02 08:19:26;;;;;;;11.00;5.22;;;;;;;25.54;40.59;97180.47;4954687;29;20048;-82
2021/09/02 08:21:53;;;;;;;9.98;4.80;;;;;;;25.79;40.78;97172.13;4951846;29;20047;-82
2021/09/02 08:24:20;;;;;;;8.23;5.32;;;;;;;25.89;40.45;97180.47;4954301;29;20051;-81
2021/09/02 08:26:46;;;;;;;8.05;4.65;;;;;;;25.82;39.38;97179.69;4954609;29;20054;-79
2021/09/02 08:29:13;;;;;;;9.85;5.28;;;;;;;25.96;38.39;97180.50;4954139;29;20043;-83
2021/09/02 08:31:39;;;;;;;6.90;5.03;;;;;;;26.03;39.15;97186.06;4954878;29;20051;-81
2021/09/02 08:34:07;;;;;;;6.93;5.15;;;;;;;26.11;39.50;97184.09;4954113;29;20499;-83
2021/09/02 08:36:34;;;;;;;7.97;5.20;;;;;;;26.23;37.08;97183.66;4954767;29;20062;-80
2021/09/02 08:39:01;;;;;;;6.55;4.90;;;;;;;26.27;39.49;97181.69;4953779;29;20065;-79
2021/09/02 08:41:28;;;;;;;6.50;4.85;;;;;;;26.64;38.01;97179.63;4954262;29;20510;-80
2021/09/02 08:43:54;;;;;;;7.10;4.95;;;;;;;26.84;38.56;97182.75;4954368;29;20055;-82
2021/09/02 08:46:21;;;;;;;6.18;4.78;;;;;;;27.09;37.13;97177.06;4953920;29;20545;-80
2021/09/02 08:48:49;;;;;;;7.07;4.97;;;;;;;27.30;35.79;97177.78;4954132;29;20051;-81
2021/09/02 08:51:17;;;;;;;6.90;4.97;;;;;;;27.57;35.48;97174.41;4953736;29;20066;-82
2021/09/02 08:53:45;;;;;;;9.57;5.07;;;;;;;27.81;37.67;97173.44;4954162;29;20050;-80
2021/09/02 08:56:11;;;;;;;6.63;4.93;;;;;;;28.14;35.91;97170.34;4953732;29;20068;-80
2021/09/02 08:58:38;;;;;;;8.15;5.05;;;;;;;27.93;35.68;97179.75;4954026;29;20055;-80
2021/09/02 09:01:06;;;;;;;6.43;4.18;;;;;;;28.20;35.09;97177.91;4952543;28;20047;-80
2021/09/02 09:03:34;;;;;;;8.75;5.05;;;;;;;28.36;33.43;97177.41;4954313;29;20059;-81
2021/09/02 09:06:06;;;;;;;6.30;4.63;;;;;;;28.32;33.21;97174.59;4953731;29;20542;-81
2021/09/02 09:08:36;;;;;;;8.35;4.63;;;;;;;28.33;32.40;97170.59;4953715;29;20103;-80
2021/09/02 09:11:25;;;;;;;7.10;4.97;;;;;;;28.12;34.56;97165.19;4953530;29;20442;-80
2021/09/02 09:14:06;;;;;;;6.97;5.00;;;;;;;28.02;34.58;97163.28;4949632;29;20099;-81
2021/09/02 09:16:44;;;;;;;6.78;5.25;;;;;;;28.00;32.59;97168.50;4951299;29;20562;-81
2021/09/02 09:19:11;;;;;;;7.90;5.13;;;;;;;27.88;34.51;97166.19;4934001;29;20059;-80
2021/09/02 09:21:37;;;;;;;6.18;4.80;;;;;;;27.88;34.27;97171.78;4934913;29;20044;-81
2021/09/02 09:24:06;;;;;;;7.00;4.70;;;;;;;27.84;33.44;97185.81;4934075;29;20044;-80
2021/09/02 09:26:36;;;;;;;5.85;4.53;;;;;;;27.58;34.07;97173.19;4933998;29;20415;-80
2021/09/02 09:29:15;;;;;;;9.35;5.25;;;;;;;27.73;34.15;97177.50;4933607;29;20048;-81
2021/09/02 09:31:42;;;;;;;7.03;5.03;;;;;;;27.67;35.88;97173.53;4933619;29;20048;-79
2021/09/02 09:34:08;;;;;;;7.28;4.53;;;;;;;27.79;34.56;97175.88;4936845;29;20047;-80
2021/09/02 09:36:37;;;;;;;7.47;5.05;;;;;;;27.58;33.78;97165.59;4953328;29;20051;-81
2021/09/02 09:39:07;;;;;;;9.32;5.45;;;;;;;27.22;35.06;97165.03;4936381;29;20051;-83
2021/09/02 09:41:36;;;;;;;7.18;5.00;;;;;;;26.93;37.48;97169.91;4934176;29;20048;-81
2021/09/02 09:44:20;;;;;;;8.00;5.53;;;;;;;26.56;38.84;97169.66;4933813;29;20048;-80
2021/09/02 09:47:12;;;;;;;8.23;5.50;;;;;;;25.99;37.79;97164.94;4934207;29;20048;-82
2021/09/02 09:49:48;;;;;;;9.03;5.47;;;;;;;25.41;40.03;97171.66;4934253;29;20083;-82
2021/09/02 09:52:19;;;;;;;7.45;5.00;;;;;;;25.05;41.37;97160.38;4933635;29;20078;-81
2021/09/02 09:54:47;;;;;;;7.70;5.05;;;;;;;24.62;41.08;97159.44;4934068;29;20054;-82
2021/09/02 09:57:15;;;;;;;7.28;5.25;;;;;;;24.36;43.02;97157.69;4933503;29;20058;-81
2021/09/02 09:59:42;;;;;;;7.15;5.00;;;;;;;24.24;41.68;97155.22;4933789;29;20503;-83
2021/09/02 10:02:09;;;;;;;7.97;5.50;;;;;;;24.01;41.05;97152.66;4933423;29;20059;-82
2021/09/02 10:04:36;;;;;;;7.40;4.75;;;;;;;23.90;40.91;97155.38;4940365;29;20387;-82
2021/09/02 10:07:04;;;;;;;7.45;4.60;;;;;;;23.72;41.18;97162.78;4952616;29;20051;-82
2021/09/02 10:09:31;;;;;;;7.15;4.88;;;;;;;23.75;42.30;97162.00;4952890;29;20074;-82
2021/09/02 10:12:00;;;;;;;6.95;4.57;;;;;;;23.56;41.18;97149.91;4950799;28;20047;-81
2021/09/02 10:14:26;;;;;;;9.18;4.50;;;;;;;23.57;46.00;97157.06;4952413;29;20126;-81
2021/09/02 10:16:53;;;;;;;8.18;4.60;;;;;;;23.51;41.96;97155.81;4952976;29;20055;-83
2021/09/02 10:19:22;;;;;;;7.25;4.50;;;;;;;23.50;43.12;97156.22;4952310;29;20458;-82
2021/09/02 10:21:51;;;;;;;8.43;5.00;;;;;;;23.58;48.23;97153.09;4953097;29;20427;-83
2021/09/02 10:24:39;;;;;;;7.97;5.00;;;;;;;23.64;45.73;97153.56;4952164;29;20047;-83
2021/09/02 10:27:37;;;;;;;6.65;4.65;;;;;;;23.60;43.65;97152.75;4952358;29;20044;-81
2021/09/02 10:30:23;;;;;;;6.97;4.20;;;;;;;23.63;42.80;97144.44;4952761;29;20043;-81
2021/09/02 10:32:50;;;;;;;6.93;4.68;;;;;;;23.55;43.37;97139.19;4932669;29;20043;-83
2021/09/02 10:35:34;;;;;;;6.75;4.38;;;;;;;23.42;42.58;97133.09;4944748;29;20054;-84
2021/09/02 10:38:01;;;;;;;7.22;4.70;;;;;;;23.20;42.92;97128.53;4952418;28;20140;-82
2021/09/02 10:40:44;;;;;;;7.30;4.57;;;;;;;23.02;43.22;97137.50;4952220;29;20106;-84
2021/09/02 10:43:12;;;;;;;7.90;4.20;;;;;;;22.87;43.66;97138.47;4951981;29;20078;-84
2021/09/02 10:45:39;;;;;;;6.75;3.90;;;;;;;22.77;41.59;97133.59;4952380;29;20184;-83
2021/09/02 10:48:07;;;;;;;5.85;4.10;;;;;;;22.53;41.22;97138.44;4952334;29;20051;-83
2021/09/02 10:50:37;;;;;;;10.45;4.40;;;;;;;22.49;43.58;97129.28;4952265;29;20051;-85
2021/09/02 10:53:10;;;;;;;7.38;4.35;;;;;;;22.53;43.38;97127.34;4952119;29;20047;-84
2021/09/02 10:55:40;;;;;;;5.32;3.75;;;;;;;22.52;43.17;97131.31;4944084;29;20052;-83
2021/09/02 10:58:07;;;;;;;7.10;4.43;;;;;;;22.52;42.77;97136.06;4952037;29;20429;-83
2021/09/02 11:00:37;;;;;;;7.35;4.55;;;;;;;22.49;44.11;97128.47;4944428;29;20471;-82
2021/09/02 11:03:14;;;;;;;6.18;4.32;;;;;;;22.45;44.19;97125.69;4951919;29;20051;-84
2021/09/02 11:05:42;;;;;;;6.07;4.10;;;;;;;22.34;43.63;97125.53;4952235;29;20051;-84
2021/09/02 11:08:09;;;;;;;6.93;4.18;;;;;;;22.33;45.31;97120.34;4952050;29;20126;-84
2021/09/02 11:10:36;;;;;;;6.22;4.25;;;;;;;22.23;43.98;97123.78;4952420;29;20055;-83
2021/09/02 11:13:05;;;;;;;6.38;4.15;;;;;;;22.16;43.63;97118.13;4951727;29;20526;-83
2021/09/02 11:15:33;;;;;;;7.13;4.38;;;;;;;22.14;44.42;97127.63;4952527;29;20055;-83
2021/09/02 11:18:02;;;;;;;7.35;3.90;;;;;;;22.17;44.90;97119.72;4951984;29;20044;-83
2021/09/02 11:20:30;;;;;;;5.55;4.32;;;;;;;22.21;44.60;97126.94;4951971;29;20040;-84
2021/09/02 11:23:10;;;;;;;7.03;4.68;;;;;;;22.23;45.79;97118.22;4952141;28;20406;-84
2021/09/02 11:25:41;;;;;;;10.50;7.80;;;;;;;22.27;45.97;97119.06;4955674;29;20542;-83
2021/09/02 11:28:08;;;;;;;7.65;5.35;;;;;;;22.25;45.53;97121.44;4955471;29;20043;-84
2021/09/02 11:30:35;;;;;;;7.45;4.63;;;;;;;22.22;44.24;97116.63;4955696;29;20058;-85
2021/09/02 11:33:06;;;;;;;5.97;4.45;;;;;;;22.25;45.54;97116.69;4955177;29;20058;-84